SVA1428 OEJN-OEMA
Flight info
| Callsign | SVA1428 |
|---|---|
| Flight time | 0h 37m |
| Altitude | 23000 |
| Route | DATAP2W/34C DATAP A424 RULEB/N0367F220 A424 DEGVU |
| Aircraft | A333/H-SDE3GHIJ2J3J5M1RVWXYZ/LB2D1 |
Departure
| Time | 2026-04-29 09:05 |
|---|---|
| Airport | King Abdulaziz International Airport (OEJN) |
Arrival
| Time | 2026-04-29 09:42 |
|---|---|
| Airport | Prince Mohammad Bin Abdulaziz Airport (OEMA) |
| Time | Latitude | Longitude | Altitude | Speed | Heading |
|---|---|---|---|---|---|
| 2026-04-29 08:44 | 21.67113 | 39.16897 | 34 ft | 0 kts | 167° |
| 2026-04-29 08:45 | 21.67125 | 39.16894 | 34 ft | 0 kts | 167° |
| 2026-04-29 08:53 | 21.67138 | 39.16891 | 34 ft | 4 kts | 169° |
| 2026-04-29 08:53 | 21.67164 | 39.16887 | 33 ft | 4 kts | 176° |
| 2026-04-29 08:54 | 21.67191 | 39.16887 | 32 ft | 4 kts | 187° |
| 2026-04-29 08:54 | 21.67217 | 39.16894 | 32 ft | 4 kts | 215° |
| 2026-04-29 08:54 | 21.67228 | 39.16907 | 30 ft | 0 kts | 254° |
| 2026-04-29 08:57 | 21.67228 | 39.16906 | 30 ft | 0 kts | 254° |
| 2026-04-29 08:57 | 21.67225 | 39.16894 | 32 ft | 4 kts | 254° |
| 2026-04-29 08:58 | 21.67215 | 39.16845 | 34 ft | 9 kts | 261° |
| 2026-04-29 08:58 | 21.67241 | 39.16785 | 34 ft | 9 kts | 341° |
| 2026-04-29 08:58 | 21.67310 | 39.16779 | 34 ft | 11 kts | 356° |
| 2026-04-29 08:58 | 21.67386 | 39.16759 | 34 ft | 12 kts | 340° |
| 2026-04-29 08:59 | 21.67493 | 39.16717 | 34 ft | 19 kts | 340° |
| 2026-04-29 08:59 | 21.67615 | 39.16669 | 34 ft | 15 kts | 340° |
| 2026-04-29 08:59 | 21.67646 | 39.16599 | 34 ft | 12 kts | 255° |
| 2026-04-29 08:59 | 21.67615 | 39.16505 | 34 ft | 16 kts | 249° |
| 2026-04-29 09:00 | 21.67574 | 39.16386 | 34 ft | 17 kts | 250° |
| 2026-04-29 09:00 | 21.67547 | 39.16307 | 34 ft | 9 kts | 249° |
| 2026-04-29 09:00 | 21.67523 | 39.16238 | 34 ft | 11 kts | 250° |
| 2026-04-29 09:00 | 21.67485 | 39.16166 | 34 ft | 11 kts | 204° |
| 2026-04-29 09:01 | 21.67403 | 39.16182 | 34 ft | 17 kts | 161° |
| 2026-04-29 09:01 | 21.67274 | 39.16232 | 35 ft | 21 kts | 160° |
| 2026-04-29 09:01 | 21.67134 | 39.16287 | 35 ft | 22 kts | 161° |
| 2026-04-29 09:01 | 21.66983 | 39.16345 | 40 ft | 24 kts | 160° |
| 2026-04-29 09:02 | 21.66822 | 39.16407 | 36 ft | 25 kts | 160° |
| 2026-04-29 09:02 | 21.66651 | 39.16475 | 35 ft | 27 kts | 160° |
| 2026-04-29 09:02 | 21.66473 | 39.16546 | 35 ft | 28 kts | 159° |
| 2026-04-29 09:02 | 21.66289 | 39.16619 | 35 ft | 24 kts | 160° |
| 2026-04-29 09:03 | 21.66187 | 39.16631 | 34 ft | 11 kts | 220° |
| 2026-04-29 09:03 | 21.66153 | 39.16549 | 34 ft | 13 kts | 249° |
| 2026-04-29 09:03 | 21.66148 | 39.16488 | 34 ft | 5 kts | 312° |
| 2026-04-29 09:03 | 21.66188 | 39.16464 | 34 ft | 8 kts | 335° |
| 2026-04-29 09:04 | 21.66210 | 39.16455 | 34 ft | 7 kts | 340° |
| 2026-04-29 09:04 | 21.66380 | 39.16387 | 38 ft | 55 kts | 340° |
| 2026-04-29 09:04 | 21.66934 | 39.16169 | 41 ft | 115 kts | 340° |
| 2026-04-29 09:04 | 21.67861 | 39.15802 | 106 ft | 163 kts | 339° |
| 2026-04-29 09:05 | 21.68962 | 39.15318 | 667 ft | 180 kts | 336° |
| 2026-04-29 09:05 | 21.70146 | 39.14715 | 1361 ft | 194 kts | 333° |
| 2026-04-29 09:05 | 21.71375 | 39.14045 | 2016 ft | 205 kts | 335° |
| 2026-04-29 09:05 | 21.72766 | 39.13475 | 2517 ft | 223 kts | 343° |
| 2026-04-29 09:06 | 21.74335 | 39.13035 | 2993 ft | 243 kts | 346° |
| 2026-04-29 09:06 | 21.76027 | 39.12576 | 3608 ft | 258 kts | 345° |
| 2026-04-29 09:06 | 21.77766 | 39.12038 | 4438 ft | 261 kts | 340° |
| 2026-04-29 09:06 | 21.79508 | 39.11377 | 5149 ft | 271 kts | 336° |
| 2026-04-29 09:07 | 21.81290 | 39.10636 | 5915 ft | 278 kts | 335° |
| 2026-04-29 09:07 | 21.83114 | 39.09950 | 6667 ft | 285 kts | 349° |
| 2026-04-29 09:07 | 21.85062 | 39.09502 | 7468 ft | 287 kts | 340° |
| 2026-04-29 09:07 | 21.86931 | 39.08770 | 8388 ft | 285 kts | 334° |
| 2026-04-29 09:08 | 21.88746 | 39.07926 | 9340 ft | 285 kts | 332° |
| 2026-04-29 09:08 | 21.90549 | 39.07018 | 10218 ft | 287 kts | 331° |
| 2026-04-29 09:08 | 21.92400 | 39.06045 | 10655 ft | 307 kts | 330° |
| 2026-04-29 09:08 | 21.94389 | 39.05007 | 10963 ft | 328 kts | 331° |
| 2026-04-29 09:09 | 21.96492 | 39.03940 | 11468 ft | 341 kts | 332° |
| 2026-04-29 09:09 | 21.98684 | 39.02864 | 12142 ft | 348 kts | 332° |
| 2026-04-29 09:09 | 22.00924 | 39.01819 | 12868 ft | 354 kts | 333° |
| 2026-04-29 09:09 | 22.03206 | 39.00779 | 13613 ft | 360 kts | 336° |
| 2026-04-29 09:10 | 22.05627 | 39.00106 | 14263 ft | 370 kts | 349° |
| 2026-04-29 09:10 | 22.08228 | 39.00175 | 14936 ft | 382 kts | 8° |
| 2026-04-29 09:10 | 22.10741 | 39.01181 | 15618 ft | 391 kts | 24° |
| 2026-04-29 09:10 | 22.13078 | 39.02733 | 16291 ft | 398 kts | 32° |
| 2026-04-29 09:11 | 22.15294 | 39.04568 | 16931 ft | 404 kts | 36° |
| 2026-04-29 09:11 | 22.17460 | 39.06537 | 17596 ft | 409 kts | 38° |
| 2026-04-29 09:11 | 22.19629 | 39.08552 | 18233 ft | 414 kts | 37° |
| 2026-04-29 09:11 | 22.21830 | 39.10574 | 18769 ft | 418 kts | 37° |
| 2026-04-29 09:12 | 22.24044 | 39.12563 | 19321 ft | 421 kts | 36° |
| 2026-04-29 09:12 | 22.26320 | 39.14567 | 19868 ft | 425 kts | 35° |
| 2026-04-29 09:12 | 22.28634 | 39.16576 | 20432 ft | 427 kts | 35° |
| 2026-04-29 09:12 | 22.30963 | 39.18583 | 21018 ft | 430 kts | 34° |
| 2026-04-29 09:13 | 22.33314 | 39.20602 | 21580 ft | 433 kts | 34° |
| 2026-04-29 09:13 | 22.35681 | 39.22634 | 22139 ft | 436 kts | 34° |
| 2026-04-29 09:13 | 22.38064 | 39.24681 | 22676 ft | 440 kts | 34° |
| 2026-04-29 09:13 | 22.40483 | 39.26760 | 22907 ft | 450 kts | 34° |
| 2026-04-29 09:14 | 22.42970 | 39.28897 | 22953 ft | 465 kts | 34° |
| 2026-04-29 09:14 | 22.45514 | 39.31085 | 22938 ft | 478 kts | 34° |
| 2026-04-29 09:14 | 22.48132 | 39.33343 | 22937 ft | 484 kts | 34° |
| 2026-04-29 09:14 | 22.50765 | 39.35621 | 22938 ft | 485 kts | 35° |
| 2026-04-29 09:15 | 22.53400 | 39.37905 | 22935 ft | 486 kts | 35° |
| 2026-04-29 09:15 | 22.56036 | 39.40189 | 22941 ft | 486 kts | 35° |
| 2026-04-29 09:15 | 22.58676 | 39.42475 | 22941 ft | 486 kts | 35° |
| 2026-04-29 09:15 | 22.61319 | 39.44765 | 22941 ft | 486 kts | 35° |
| 2026-04-29 09:16 | 22.63977 | 39.47021 | 22954 ft | 485 kts | 31° |
| 2026-04-29 09:16 | 22.66885 | 39.48812 | 22943 ft | 478 kts | 20° |
| 2026-04-29 09:16 | 22.69884 | 39.50226 | 22950 ft | 476 kts | 17° |
| 2026-04-29 09:16 | 22.72972 | 39.51521 | 22948 ft | 475 kts | 15° |
| 2026-04-29 09:17 | 22.76080 | 39.52733 | 22948 ft | 475 kts | 14° |
| 2026-04-29 09:17 | 22.79194 | 39.53910 | 22946 ft | 474 kts | 14° |
| 2026-04-29 09:17 | 22.82315 | 39.55082 | 22946 ft | 474 kts | 14° |
| 2026-04-29 09:17 | 22.85433 | 39.56260 | 22967 ft | 475 kts | 14° |
| 2026-04-29 09:18 | 22.88548 | 39.57448 | 22945 ft | 475 kts | 14° |
| 2026-04-29 09:18 | 22.91694 | 39.58468 | 22961 ft | 471 kts | 9° |
| 2026-04-29 09:18 | 22.94888 | 39.59300 | 22962 ft | 472 kts | 8° |
| 2026-04-29 09:18 | 22.98052 | 39.60072 | 22958 ft | 473 kts | 7° |
| 2026-04-29 09:19 | 23.01266 | 39.60819 | 22959 ft | 472 kts | 7° |
| 2026-04-29 09:19 | 23.04481 | 39.61548 | 22958 ft | 472 kts | 6° |
| 2026-04-29 09:19 | 23.07695 | 39.62268 | 22958 ft | 472 kts | 6° |
| 2026-04-29 09:19 | 23.10910 | 39.62987 | 22962 ft | 471 kts | 6° |
| 2026-04-29 09:20 | 23.14120 | 39.63705 | 22957 ft | 472 kts | 6° |
| 2026-04-29 09:20 | 23.17338 | 39.64428 | 22958 ft | 472 kts | 6° |
| 2026-04-29 09:20 | 23.20550 | 39.65153 | 22960 ft | 472 kts | 6° |
| 2026-04-29 09:20 | 23.23719 | 39.65869 | 22958 ft | 471 kts | 6° |
| 2026-04-29 09:21 | 23.26928 | 39.66591 | 22960 ft | 471 kts | 6° |
| 2026-04-29 09:21 | 23.30140 | 39.67317 | 22970 ft | 471 kts | 6° |
| 2026-04-29 09:21 | 23.33343 | 39.68045 | 22980 ft | 472 kts | 6° |
| 2026-04-29 09:21 | 23.36558 | 39.68780 | 22971 ft | 471 kts | 6° |
| 2026-04-29 09:22 | 23.39768 | 39.69515 | 22973 ft | 472 kts | 6° |
| 2026-04-29 09:22 | 23.42981 | 39.70249 | 22967 ft | 472 kts | 6° |
| 2026-04-29 09:22 | 23.46197 | 39.70979 | 22969 ft | 471 kts | 6° |
| 2026-04-29 09:22 | 23.49402 | 39.71706 | 22969 ft | 471 kts | 6° |
| 2026-04-29 09:23 | 23.52612 | 39.72434 | 22962 ft | 471 kts | 6° |
| 2026-04-29 09:23 | 23.55823 | 39.73163 | 22982 ft | 471 kts | 6° |
| 2026-04-29 09:23 | 23.58987 | 39.73882 | 22965 ft | 471 kts | 6° |
| 2026-04-29 09:23 | 23.62191 | 39.74614 | 22963 ft | 471 kts | 7° |
| 2026-04-29 09:24 | 23.65401 | 39.75346 | 22966 ft | 471 kts | 6° |
| 2026-04-29 09:24 | 23.68605 | 39.76075 | 22971 ft | 471 kts | 6° |
| 2026-04-29 09:24 | 23.71814 | 39.76806 | 22963 ft | 471 kts | 6° |
| 2026-04-29 09:24 | 23.75021 | 39.77538 | 22962 ft | 471 kts | 6° |
| 2026-04-29 09:25 | 23.78220 | 39.78268 | 22775 ft | 469 kts | 6° |
| 2026-04-29 09:25 | 23.81411 | 39.78999 | 22512 ft | 467 kts | 7° |
| 2026-04-29 09:25 | 23.84543 | 39.79717 | 22252 ft | 466 kts | 7° |
| 2026-04-29 09:25 | 23.87711 | 39.80442 | 22015 ft | 464 kts | 7° |
| 2026-04-29 09:26 | 23.90864 | 39.81164 | 21750 ft | 463 kts | 7° |
| 2026-04-29 09:26 | 23.94014 | 39.81885 | 21480 ft | 463 kts | 7° |
| 2026-04-29 09:26 | 23.97163 | 39.82606 | 21009 ft | 461 kts | 7° |
| 2026-04-29 09:26 | 24.00291 | 39.83323 | 20447 ft | 458 kts | 7° |
| 2026-04-29 09:27 | 24.03397 | 39.84036 | 19891 ft | 453 kts | 7° |
| 2026-04-29 09:27 | 24.06459 | 39.84741 | 19336 ft | 448 kts | 7° |
| 2026-04-29 09:27 | 24.09491 | 39.85439 | 18780 ft | 443 kts | 8° |
| 2026-04-29 09:27 | 24.12455 | 39.86120 | 18233 ft | 439 kts | 8° |
| 2026-04-29 09:28 | 24.15430 | 39.86803 | 17640 ft | 435 kts | 8° |
| 2026-04-29 09:28 | 24.18380 | 39.87482 | 17087 ft | 432 kts | 8° |
| 2026-04-29 09:28 | 24.21309 | 39.88141 | 16536 ft | 428 kts | 6° |
| 2026-04-29 09:28 | 24.24240 | 39.88280 | 15951 ft | 418 kts | 353° |
| 2026-04-29 09:29 | 24.27116 | 39.87982 | 15338 ft | 413 kts | 349° |
| 2026-04-29 09:29 | 24.32711 | 39.86923 | 14257 ft | 405 kts | 345° |
| 2026-04-29 09:29 | 24.35463 | 39.86303 | 13732 ft | 403 kts | 345° |
| 2026-04-29 09:30 | 24.38161 | 39.85687 | 13151 ft | 400 kts | 345° |
| 2026-04-29 09:30 | 24.40881 | 39.85076 | 12618 ft | 397 kts | 345° |
| 2026-04-29 09:30 | 24.43582 | 39.84483 | 12089 ft | 394 kts | 346° |
| 2026-04-29 09:30 | 24.46260 | 39.83906 | 11586 ft | 391 kts | 346° |
| 2026-04-29 09:31 | 24.48919 | 39.83338 | 11063 ft | 388 kts | 346° |
| 2026-04-29 09:31 | 24.51558 | 39.82779 | 10673 ft | 384 kts | 346° |
| 2026-04-29 09:31 | 24.54173 | 39.82224 | 10592 ft | 383 kts | 346° |
| 2026-04-29 09:31 | 24.56787 | 39.81669 | 10446 ft | 382 kts | 346° |
| 2026-04-29 09:32 | 24.59393 | 39.81116 | 10283 ft | 381 kts | 346° |
| 2026-04-29 09:32 | 24.61994 | 39.80567 | 9715 ft | 380 kts | 346° |
| 2026-04-29 09:32 | 24.64557 | 39.80026 | 9293 ft | 368 kts | 346° |
| 2026-04-29 09:32 | 24.66968 | 39.79519 | 8969 ft | 346 kts | 346° |
| 2026-04-29 09:33 | 24.69256 | 39.79040 | 8591 ft | 324 kts | 347° |
| 2026-04-29 09:33 | 24.71400 | 39.78588 | 8260 ft | 304 kts | 347° |
| 2026-04-29 09:33 | 24.73410 | 39.78162 | 7972 ft | 286 kts | 346° |
| 2026-04-29 09:33 | 24.75310 | 39.77758 | 7636 ft | 273 kts | 347° |
| 2026-04-29 09:34 | 24.77151 | 39.77365 | 7210 ft | 267 kts | 347° |
| 2026-04-29 09:34 | 24.78950 | 39.76980 | 6827 ft | 259 kts | 347° |
| 2026-04-29 09:34 | 24.80677 | 39.76610 | 6650 ft | 247 kts | 345° |
| 2026-04-29 09:34 | 24.82153 | 39.75837 | 6437 ft | 235 kts | 316° |
| 2026-04-29 09:35 | 24.83043 | 39.74386 | 6148 ft | 229 kts | 287° |
| 2026-04-29 09:35 | 24.83332 | 39.72677 | 5774 ft | 227 kts | 271° |
| 2026-04-29 09:35 | 24.83291 | 39.70969 | 5533 ft | 220 kts | 264° |
| 2026-04-29 09:35 | 24.82838 | 39.69412 | 5313 ft | 214 kts | 234° |
| 2026-04-29 09:36 | 24.81763 | 39.68299 | 5271 ft | 212 kts | 217° |
| 2026-04-29 09:36 | 24.80522 | 39.67426 | 5244 ft | 212 kts | 208° |
| 2026-04-29 09:36 | 24.79177 | 39.66749 | 5264 ft | 213 kts | 204° |
| 2026-04-29 09:36 | 24.77813 | 39.66304 | 5242 ft | 197 kts | 187° |
| 2026-04-29 09:37 | 24.76488 | 39.66329 | 5263 ft | 188 kts | 174° |
| 2026-04-29 09:37 | 24.75224 | 39.66575 | 5269 ft | 185 kts | 170° |
| 2026-04-29 09:37 | 24.73968 | 39.66851 | 5263 ft | 184 kts | 170° |
| 2026-04-29 09:37 | 24.72713 | 39.67121 | 5119 ft | 184 kts | 171° |
| 2026-04-29 09:38 | 24.71449 | 39.67384 | 4862 ft | 185 kts | 171° |
| 2026-04-29 09:38 | 24.70179 | 39.67653 | 4580 ft | 186 kts | 171° |
| 2026-04-29 09:38 | 24.68930 | 39.67920 | 4324 ft | 178 kts | 171° |
| 2026-04-29 09:38 | 24.67738 | 39.68178 | 4116 ft | 173 kts | 171° |
| 2026-04-29 09:39 | 24.66548 | 39.68432 | 3901 ft | 174 kts | 171° |
| 2026-04-29 09:39 | 24.65379 | 39.68680 | 3660 ft | 165 kts | 172° |
| 2026-04-29 09:39 | 24.64308 | 39.68910 | 3459 ft | 154 kts | 170° |
| 2026-04-29 09:39 | 24.63278 | 39.69131 | 3317 ft | 148 kts | 171° |
| 2026-04-29 09:40 | 24.62286 | 39.69344 | 3145 ft | 144 kts | 172° |
| 2026-04-29 09:40 | 24.61310 | 39.69565 | 2845 ft | 141 kts | 171° |
| 2026-04-29 09:40 | 24.60357 | 39.69761 | 2711 ft | 139 kts | 172° |
| 2026-04-29 09:40 | 24.59400 | 39.69957 | 2532 ft | 140 kts | 168° |
| 2026-04-29 09:41 | 24.58435 | 39.70163 | 2337 ft | 141 kts | 169° |
| 2026-04-29 09:41 | 24.57475 | 39.70368 | 2140 ft | 140 kts | 170° |
| 2026-04-29 09:41 | 24.56593 | 39.70555 | 2117 ft | 113 kts | 169° |
| 2026-04-29 09:41 | 24.56008 | 39.70684 | 2116 ft | 73 kts | 169° |
| 2026-04-29 09:42 | 24.55584 | 39.70774 | 2112 ft | 47 kts | 169° |
| 2026-04-29 09:42 | 24.55354 | 39.70849 | 2113 ft | 31 kts | 151° |
| 2026-04-29 09:42 | 24.55241 | 39.70938 | 2113 ft | 10 kts | 140° |
| 2026-04-29 09:42 | 24.55213 | 39.71005 | 2111 ft | 11 kts | 86° |
| 2026-04-29 09:43 | 24.55227 | 39.71099 | 2110 ft | 14 kts | 78° |
| 2026-04-29 09:43 | 24.55246 | 39.71193 | 2109 ft | 9 kts | 64° |
| 2026-04-29 09:43 | 24.55299 | 39.71216 | 2109 ft | 9 kts | 355° |
| 2026-04-29 09:43 | 24.55356 | 39.71209 | 2109 ft | 5 kts | 360° |
| 2026-04-29 09:44 | 24.55369 | 39.71224 | 2109 ft | 4 kts | 56° |
| 2026-04-29 09:44 | 24.55385 | 39.71276 | 2109 ft | 4 kts | 78° |
| 2026-04-29 09:44 | 24.55389 | 39.71297 | 2109 ft | 0 kts | 78° |